sensor_id;sensor_type;location;lat;lon;timestamp;P1;durP1;ratioP1;P2;durP2;ratioP2
20365;SDS011;10341;49.894;8.822;2023-04-12T00:02:51;3.35;;;1.60;;
20365;SDS011;10341;49.894;8.822;2023-04-12T00:08:12;3.00;;;1.85;;
20365;SDS011;10341;49.894;8.822;2023-04-12T00:18:51;5.72;;;2.08;;
20365;SDS011;10341;49.894;8.822;2023-04-12T00:24:10;5.05;;;2.17;;
20365;SDS011;10341;49.894;8.822;2023-04-12T00:34:50;4.03;;;1.52;;
20365;SDS011;10341;49.894;8.822;2023-04-12T00:40:12;6.93;;;2.00;;
20365;SDS011;10341;49.894;8.822;2023-04-12T00:45:32;6.70;;;1.95;;
20365;SDS011;10341;49.894;8.822;2023-04-12T00:50:52;5.93;;;1.77;;
20365;SDS011;10341;49.894;8.822;2023-04-12T00:56:13;6.53;;;1.88;;
20365;SDS011;10341;49.894;8.822;2023-04-12T01:01:33;4.07;;;1.42;;
20365;SDS011;10341;49.894;8.822;2023-04-12T01:07:13;3.97;;;1.30;;
20365;SDS011;10341;49.894;8.822;2023-04-12T01:18:36;4.15;;;1.20;;
20365;SDS011;10341;49.894;8.822;2023-04-12T01:29:54;5.57;;;1.17;;
20365;SDS011;10341;49.894;8.822;2023-04-12T01:35:18;3.40;;;1.30;;
20365;SDS011;10341;49.894;8.822;2023-04-12T01:40:38;3.60;;;1.30;;
20365;SDS011;10341;49.894;8.822;2023-04-12T01:46:00;1.48;;;1.10;;
20365;SDS011;10341;49.894;8.822;2023-04-12T01:51:26;7.97;;;1.48;;
20365;SDS011;10341;49.894;8.822;2023-04-12T01:56:57;5.95;;;1.10;;
20365;SDS011;10341;49.894;8.822;2023-04-12T02:02:20;5.10;;;1.25;;
20365;SDS011;10341;49.894;8.822;2023-04-12T02:07:40;4.72;;;1.48;;
20365;SDS011;10341;49.894;8.822;2023-04-12T02:13:01;5.00;;;1.42;;
20365;SDS011;10341;49.894;8.822;2023-04-12T02:18:22;4.72;;;2.00;;
20365;SDS011;10341;49.894;8.822;2023-04-12T02:23:42;2.72;;;1.30;;
20365;SDS011;10341;49.894;8.822;2023-04-12T02:29:03;6.25;;;1.70;;
20365;SDS011;10341;49.894;8.822;2023-04-12T02:34:26;7.70;;;1.70;;
20365;SDS011;10341;49.894;8.822;2023-04-12T02:40:00;3.88;;;2.00;;
20365;SDS011;10341;49.894;8.822;2023-04-12T02:45:22;6.75;;;2.00;;
20365;SDS011;10341;49.894;8.822;2023-04-12T02:50:42;6.28;;;1.67;;
20365;SDS011;10341;49.894;8.822;2023-04-12T02:56:08;5.75;;;1.98;;
20365;SDS011;10341;49.894;8.822;2023-04-12T03:01:28;4.68;;;2.00;;
20365;SDS011;10341;49.894;8.822;2023-04-12T03:07:07;6.65;;;2.00;;
20365;SDS011;10341;49.894;8.822;2023-04-12T03:12:35;4.22;;;2.10;;
20365;SDS011;10341;49.894;8.822;2023-04-12T03:18:06;5.15;;;1.80;;
20365;SDS011;10341;49.894;8.822;2023-04-12T03:23:35;5.05;;;1.95;;
20365;SDS011;10341;49.894;8.822;2023-04-12T03:29:06;5.80;;;1.83;;
20365;SDS011;10341;49.894;8.822;2023-04-12T03:34:28;4.53;;;1.98;;
20365;SDS011;10341;49.894;8.822;2023-04-12T03:39:52;4.00;;;1.80;;
20365;SDS011;10341;49.894;8.822;2023-04-12T03:45:15;4.05;;;1.40;;
20365;SDS011;10341;49.894;8.822;2023-04-12T03:50:42;5.18;;;1.83;;
20365;SDS011;10341;49.894;8.822;2023-04-12T03:56:13;3.58;;;1.70;;
20365;SDS011;10341;49.894;8.822;2023-04-12T04:01:35;3.97;;;1.90;;
20365;SDS011;10341;49.894;8.822;2023-04-12T04:06:55;5.03;;;1.88;;
20365;SDS011;10341;49.894;8.822;2023-04-12T04:12:15;3.95;;;1.77;;
20365;SDS011;10341;49.894;8.822;2023-04-12T04:17:39;5.03;;;1.80;;
20365;SDS011;10341;49.894;8.822;2023-04-12T04:23:01;4.53;;;1.77;;
20365;SDS011;10341;49.894;8.822;2023-04-12T04:28:20;3.35;;;1.65;;
20365;SDS011;10341;49.894;8.822;2023-04-12T04:33:41;5.53;;;1.92;;
20365;SDS011;10341;49.894;8.822;2023-04-12T04:39:01;3.97;;;2.28;;
20365;SDS011;10341;49.894;8.822;2023-04-12T04:44:31;3.47;;;1.70;;
20365;SDS011;10341;49.894;8.822;2023-04-12T04:49:58;4.20;;;2.10;;
20365;SDS011;10341;49.894;8.822;2023-04-12T04:55:19;4.30;;;1.90;;
20365;SDS011;10341;49.894;8.822;2023-04-12T05:00:40;4.53;;;1.90;;
20365;SDS011;10341;49.894;8.822;2023-04-12T05:06:03;6.20;;;2.30;;
20365;SDS011;10341;49.894;8.822;2023-04-12T05:11:25;3.55;;;1.75;;
20365;SDS011;10341;49.894;8.822;2023-04-12T05:16:45;4.65;;;2.05;;
20365;SDS011;10341;49.894;8.822;2023-04-12T05:22:05;3.00;;;1.80;;
20365;SDS011;10341;49.894;8.822;2023-04-12T05:27:25;2.58;;;1.52;;
20365;SDS011;10341;49.894;8.822;2023-04-12T05:32:45;2.53;;;1.73;;
20365;SDS011;10341;49.894;8.822;2023-04-12T05:38:06;2.25;;;1.65;;
20365;SDS011;10341;49.894;8.822;2023-04-12T05:43:26;2.67;;;1.80;;
20365;SDS011;10341;49.894;8.822;2023-04-12T05:48:46;2.05;;;1.27;;
20365;SDS011;10341;49.894;8.822;2023-04-12T05:54:05;2.72;;;1.35;;
20365;SDS011;10341;49.894;8.822;2023-04-12T05:59:26;5.20;;;1.23;;
20365;SDS011;10341;49.894;8.822;2023-04-12T06:04:46;2.42;;;1.40;;
20365;SDS011;10341;49.894;8.822;2023-04-12T06:10:07;3.88;;;1.70;;
20365;SDS011;10341;49.894;8.822;2023-04-12T06:15:27;2.65;;;1.67;;
20365;SDS011;10341;49.894;8.822;2023-04-12T06:20:51;2.60;;;1.60;;
20365;SDS011;10341;49.894;8.822;2023-04-12T06:26:10;3.17;;;1.73;;
20365;SDS011;10341;49.894;8.822;2023-04-12T06:31:31;2.60;;;1.60;;
20365;SDS011;10341;49.894;8.822;2023-04-12T06:36:51;1.95;;;1.38;;
20365;SDS011;10341;49.894;8.822;2023-04-12T06:42:10;1.75;;;1.30;;
20365;SDS011;10341;49.894;8.822;2023-04-12T06:47:32;1.77;;;1.23;;
20365;SDS011;10341;49.894;8.822;2023-04-12T06:52:51;2.65;;;1.30;;
20365;SDS011;10341;49.894;8.822;2023-04-12T06:58:11;3.47;;;1.45;;
20365;SDS011;10341;49.894;8.822;2023-04-12T07:03:30;1.90;;;1.33;;
20365;SDS011;10341;49.894;8.822;2023-04-12T07:08:53;2.10;;;1.30;;
20365;SDS011;10341;49.894;8.822;2023-04-12T07:14:13;1.60;;;1.23;;
20365;SDS011;10341;49.894;8.822;2023-04-12T07:19:32;1.65;;;1.33;;
20365;SDS011;10341;49.894;8.822;2023-04-12T07:24:52;1.85;;;1.17;;
20365;SDS011;10341;49.894;8.822;2023-04-12T07:30:11;2.17;;;1.30;;
20365;SDS011;10341;49.894;8.822;2023-04-12T07:35:31;2.17;;;1.20;;
20365;SDS011;10341;49.894;8.822;2023-04-12T07:40:53;3.42;;;1.38;;
20365;SDS011;10341;49.894;8.822;2023-04-12T07:46:12;2.78;;;1.70;;
20365;SDS011;10341;49.894;8.822;2023-04-12T07:51:32;1.92;;;1.27;;
20365;SDS011;10341;49.894;8.822;2023-04-12T07:56:58;5.03;;;1.48;;
20365;SDS011;10341;49.894;8.822;2023-04-12T08:02:19;1.90;;;1.52;;
20365;SDS011;10341;49.894;8.822;2023-04-12T08:07:44;1.30;;;1.20;;
20365;SDS011;10341;49.894;8.822;2023-04-12T08:13:04;1.95;;;1.17;;
20365;SDS011;10341;49.894;8.822;2023-04-12T08:18:24;2.60;;;1.30;;
20365;SDS011;10341;49.894;8.822;2023-04-12T08:23:44;2.03;;;0.95;;
20365;SDS011;10341;49.894;8.822;2023-04-12T08:29:03;1.75;;;1.20;;
20365;SDS011;10341;49.894;8.822;2023-04-12T08:34:23;1.58;;;1.05;;
20365;SDS011;10341;49.894;8.822;2023-04-12T08:39:44;2.20;;;1.27;;
20365;SDS011;10341;49.894;8.822;2023-04-12T08:45:07;2.70;;;1.40;;
20365;SDS011;10341;49.894;8.822;2023-04-12T08:50:28;2.03;;;1.40;;
20365;SDS011;10341;49.894;8.822;2023-04-12T08:55:48;1.65;;;1.10;;
20365;SDS011;10341;49.894;8.822;2023-04-12T09:01:12;3.08;;;1.67;;
20365;SDS011;10341;49.894;8.822;2023-04-12T09:06:33;1.60;;;1.40;;
20365;SDS011;10341;49.894;8.822;2023-04-12T09:11:55;2.08;;;1.10;;
20365;SDS011;10341;49.894;8.822;2023-04-12T09:17:25;2.08;;;1.50;;
20365;SDS011;10341;49.894;8.822;2023-04-12T09:22:46;3.13;;;1.40;;
20365;SDS011;10341;49.894;8.822;2023-04-12T09:28:18;3.33;;;1.58;;
20365;SDS011;10341;49.894;8.822;2023-04-12T09:33:43;2.80;;;1.48;;
20365;SDS011;10341;49.894;8.822;2023-04-12T09:39:03;1.83;;;1.42;;
20365;SDS011;10341;49.894;8.822;2023-04-12T09:49:47;5.82;;;1.63;;
20365;SDS011;10341;49.894;8.822;2023-04-12T09:55:08;4.57;;;2.20;;
20365;SDS011;10341;49.894;8.822;2023-04-12T10:00:28;5.50;;;1.60;;
20365;SDS011;10341;49.894;8.822;2023-04-12T10:05:48;1.67;;;1.48;;
20365;SDS011;10341;49.894;8.822;2023-04-12T10:11:08;3.88;;;1.70;;
20365;SDS011;10341;49.894;8.822;2023-04-12T10:16:27;5.80;;;2.07;;
20365;SDS011;10341;49.894;8.822;2023-04-12T10:21:48;2.88;;;1.85;;
20365;SDS011;10341;49.894;8.822;2023-04-12T10:27:08;5.57;;;2.00;;
20365;SDS011;10341;49.894;8.822;2023-04-12T10:32:28;6.25;;;1.85;;
20365;SDS011;10341;49.894;8.822;2023-04-12T10:38:00;3.15;;;1.90;;
20365;SDS011;10341;49.894;8.822;2023-04-12T10:48:52;3.33;;;2.00;;
20365;SDS011;10341;49.894;8.822;2023-04-12T10:59:49;4.70;;;2.10;;
20365;SDS011;10341;49.894;8.822;2023-04-12T11:05:10;3.65;;;2.40;;
20365;SDS011;10341;49.894;8.822;2023-04-12T11:10:58;3.05;;;1.90;;
20365;SDS011;10341;49.894;8.822;2023-04-12T11:16:26;4.32;;;1.98;;
20365;SDS011;10341;49.894;8.822;2023-04-12T11:21:45;3.08;;;1.70;;
20365;SDS011;10341;49.894;8.822;2023-04-12T11:27:05;3.00;;;1.83;;
20365;SDS011;10341;49.894;8.822;2023-04-12T11:32:25;3.15;;;1.90;;
20365;SDS011;10341;49.894;8.822;2023-04-12T11:37:46;2.78;;;1.60;;
20365;SDS011;10341;49.894;8.822;2023-04-12T11:43:05;3.85;;;1.50;;
20365;SDS011;10341;49.894;8.822;2023-04-12T11:48:25;3.17;;;1.60;;
20365;SDS011;10341;49.894;8.822;2023-04-12T11:53:45;5.13;;;1.52;;
20365;SDS011;10341;49.894;8.822;2023-04-12T11:59:10;2.60;;;1.70;;
20365;SDS011;10341;49.894;8.822;2023-04-12T12:09:49;2.15;;;1.60;;
20365;SDS011;10341;49.894;8.822;2023-04-12T12:15:09;1.40;;;1.15;;
20365;SDS011;10341;49.894;8.822;2023-04-12T12:20:28;2.13;;;1.43;;
20365;SDS011;10341;49.894;8.822;2023-04-12T12:31:08;2.92;;;1.23;;
20365;SDS011;10341;49.894;8.822;2023-04-12T12:36:29;2.35;;;1.38;;
20365;SDS011;10341;49.894;8.822;2023-04-12T12:41:52;3.58;;;1.25;;
20365;SDS011;10341;49.894;8.822;2023-04-12T12:47:15;2.72;;;1.50;;
20365;SDS011;10341;49.894;8.822;2023-04-12T12:52:35;4.00;;;1.90;;
20365;SDS011;10341;49.894;8.822;2023-04-12T12:57:55;5.88;;;2.35;;
20365;SDS011;10341;49.894;8.822;2023-04-12T13:03:15;2.92;;;1.75;;
20365;SDS011;10341;49.894;8.822;2023-04-12T13:08:35;4.18;;;1.50;;
20365;SDS011;10341;49.894;8.822;2023-04-12T13:13:54;3.47;;;1.80;;
20365;SDS011;10341;49.894;8.822;2023-04-12T13:19:14;3.47;;;1.50;;
20365;SDS011;10341;49.894;8.822;2023-04-12T13:24:33;3.42;;;1.67;;
20365;SDS011;10341;49.894;8.822;2023-04-12T13:29:53;4.65;;;1.65;;
20365;SDS011;10341;49.894;8.822;2023-04-12T13:35:13;4.00;;;1.90;;
20365;SDS011;10341;49.894;8.822;2023-04-12T13:40:32;2.47;;;1.70;;
20365;SDS011;10341;49.894;8.822;2023-04-12T13:45:52;3.08;;;1.48;;
20365;SDS011;10341;49.894;8.822;2023-04-12T13:51:12;2.42;;;1.38;;
20365;SDS011;10341;49.894;8.822;2023-04-12T13:56:32;3.17;;;1.70;;
20365;SDS011;10341;49.894;8.822;2023-04-12T14:01:51;2.15;;;1.15;;
20365;SDS011;10341;49.894;8.822;2023-04-12T14:07:11;2.70;;;1.63;;
20365;SDS011;10341;49.894;8.822;2023-04-12T14:12:30;3.58;;;1.60;;
20365;SDS011;10341;49.894;8.822;2023-04-12T14:17:50;4.18;;;1.60;;
20365;SDS011;10341;49.894;8.822;2023-04-12T14:23:09;2.22;;;1.33;;
20365;SDS011;10341;49.894;8.822;2023-04-12T14:28:28;1.90;;;1.23;;
20365;SDS011;10341;49.894;8.822;2023-04-12T14:33:52;2.53;;;1.23;;
20365;SDS011;10341;49.894;8.822;2023-04-12T14:39:12;1.45;;;1.30;;
20365;SDS011;10341;49.894;8.822;2023-04-12T14:44:31;3.17;;;1.40;;
20365;SDS011;10341;49.894;8.822;2023-04-12T14:49:51;1.25;;;1.00;;
20365;SDS011;10341;49.894;8.822;2023-04-12T14:55:11;4.95;;;1.58;;
20365;SDS011;10341;49.894;8.822;2023-04-12T15:00:32;2.03;;;1.30;;
20365;SDS011;10341;49.894;8.822;2023-04-12T15:05:51;1.00;;;0.77;;
20365;SDS011;10341;49.894;8.822;2023-04-12T15:11:10;2.05;;;0.60;;
20365;SDS011;10341;49.894;8.822;2023-04-12T15:16:30;1.60;;;0.70;;
20365;SDS011;10341;49.894;8.822;2023-04-12T15:21:50;2.42;;;0.85;;
20365;SDS011;10341;49.894;8.822;2023-04-12T15:27:09;0.60;;;0.60;;
20365;SDS011;10341;49.894;8.822;2023-04-12T15:32:29;1.23;;;0.60;;
20365;SDS011;10341;49.894;8.822;2023-04-12T15:37:54;1.75;;;1.00;;
20365;SDS011;10341;49.894;8.822;2023-04-12T15:43:14;0.80;;;0.50;;
20365;SDS011;10341;49.894;8.822;2023-04-12T15:48:33;0.40;;;0.40;;
20365;SDS011;10341;49.894;8.822;2023-04-12T15:53:56;1.00;;;0.50;;
20365;SDS011;10341;49.894;8.822;2023-04-12T15:59:16;0.85;;;0.50;;
20365;SDS011;10341;49.894;8.822;2023-04-12T16:04:36;0.60;;;0.47;;
20365;SDS011;10341;49.894;8.822;2023-04-12T16:15:16;0.60;;;0.60;;
20365;SDS011;10341;49.894;8.822;2023-04-12T16:20:37;1.27;;;0.40;;
20365;SDS011;10341;49.894;8.822;2023-04-12T16:25:58;1.13;;;0.40;;
20365;SDS011;10341;49.894;8.822;2023-04-12T16:36:38;0.30;;;0.30;;
20365;SDS011;10341;49.894;8.822;2023-04-12T16:41:58;0.93;;;0.30;;
20365;SDS011;10341;49.894;8.822;2023-04-12T16:47:21;1.58;;;0.70;;
20365;SDS011;10341;49.894;8.822;2023-04-12T16:52:40;0.40;;;0.40;;
20365;SDS011;10341;49.894;8.822;2023-04-12T16:58:00;1.02;;;0.70;;
20365;SDS011;10341;49.894;8.822;2023-04-12T17:08:40;0.30;;;0.30;;
20365;SDS011;10341;49.894;8.822;2023-04-12T17:14:01;2.05;;;0.40;;
20365;SDS011;10341;49.894;8.822;2023-04-12T17:19:21;1.08;;;0.45;;
20365;SDS011;10341;49.894;8.822;2023-04-12T17:30:05;0.20;;;0.20;;
20365;SDS011;10341;49.894;8.822;2023-04-12T17:35:27;1.20;;;0.30;;
20365;SDS011;10341;49.894;8.822;2023-04-12T17:40:47;1.25;;;0.60;;
20365;SDS011;10341;49.894;8.822;2023-04-12T17:46:07;1.42;;;0.50;;
20365;SDS011;10341;49.894;8.822;2023-04-12T17:51:26;0.30;;;0.30;;
20365;SDS011;10341;49.894;8.822;2023-04-12T17:56:47;1.55;;;0.50;;
20365;SDS011;10341;49.894;8.822;2023-04-12T18:02:08;0.93;;;0.47;;
20365;SDS011;10341;49.894;8.822;2023-04-12T18:12:48;0.57;;;0.35;;
20365;SDS011;10341;49.894;8.822;2023-04-12T18:18:08;0.70;;;0.45;;
20365;SDS011;10341;49.894;8.822;2023-04-12T18:23:27;0.70;;;0.60;;
20365;SDS011;10341;49.894;8.822;2023-04-12T18:28:47;4.68;;;0.70;;
20365;SDS011;10341;49.894;8.822;2023-04-12T18:34:07;1.75;;;0.55;;
20365;SDS011;10341;49.894;8.822;2023-04-12T18:39:26;0.63;;;0.60;;
20365;SDS011;10341;49.894;8.822;2023-04-12T18:50:06;1.10;;;0.50;;
20365;SDS011;10341;49.894;8.822;2023-04-12T18:55:26;1.00;;;0.70;;
20365;SDS011;10341;49.894;8.822;2023-04-12T19:00:46;2.28;;;0.65;;
20365;SDS011;10341;49.894;8.822;2023-04-12T19:06:06;2.45;;;1.08;;
20365;SDS011;10341;49.894;8.822;2023-04-12T19:11:26;3.30;;;0.70;;
20365;SDS011;10341;49.894;8.822;2023-04-12T19:16:46;1.85;;;0.50;;
20365;SDS011;10341;49.894;8.822;2023-04-12T19:22:06;1.35;;;0.55;;
20365;SDS011;10341;49.894;8.822;2023-04-12T19:32:45;0.50;;;0.45;;
20365;SDS011;10341;49.894;8.822;2023-04-12T19:38:05;0.63;;;0.40;;
20365;SDS011;10341;49.894;8.822;2023-04-12T19:43:26;1.85;;;0.70;;
20365;SDS011;10341;49.894;8.822;2023-04-12T19:48:46;1.20;;;0.70;;
20365;SDS011;10341;49.894;8.822;2023-04-12T19:54:07;2.17;;;0.45;;
20365;SDS011;10341;49.894;8.822;2023-04-12T19:59:27;1.63;;;0.60;;
20365;SDS011;10341;49.894;8.822;2023-04-12T20:04:50;0.90;;;0.40;;
20365;SDS011;10341;49.894;8.822;2023-04-12T20:10:11;1.67;;;0.70;;
20365;SDS011;10341;49.894;8.822;2023-04-12T20:15:31;0.70;;;0.47;;
20365;SDS011;10341;49.894;8.822;2023-04-12T20:26:11;1.42;;;0.77;;
20365;SDS011;10341;49.894;8.822;2023-04-12T20:31:31;0.88;;;0.60;;
20365;SDS011;10341;49.894;8.822;2023-04-12T20:42:13;2.42;;;0.57;;
20365;SDS011;10341;49.894;8.822;2023-04-12T20:47:34;2.67;;;1.17;;
20365;SDS011;10341;49.894;8.822;2023-04-12T20:52:55;3.50;;;1.40;;
20365;SDS011;10341;49.894;8.822;2023-04-12T20:58:16;5.68;;;1.38;;
20365;SDS011;10341;49.894;8.822;2023-04-12T21:03:37;1.83;;;1.20;;
20365;SDS011;10341;49.894;8.822;2023-04-12T21:08:56;1.55;;;1.17;;
20365;SDS011;10341;49.894;8.822;2023-04-12T21:14:17;2.63;;;1.00;;
20365;SDS011;10341;49.894;8.822;2023-04-12T21:19:37;2.05;;;1.20;;
20365;SDS011;10341;49.894;8.822;2023-04-12T21:24:59;2.22;;;1.33;;
20365;SDS011;10341;49.894;8.822;2023-04-12T21:30:19;1.60;;;1.25;;
20365;SDS011;10341;49.894;8.822;2023-04-12T21:35:38;1.65;;;0.85;;
20365;SDS011;10341;49.894;8.822;2023-04-12T21:41:05;0.82;;;0.70;;
20365;SDS011;10341;49.894;8.822;2023-04-12T21:46:29;0.60;;;0.43;;
20365;SDS011;10341;49.894;8.822;2023-04-12T21:51:48;0.80;;;0.55;;
20365;SDS011;10341;49.894;8.822;2023-04-12T21:57:10;0.38;;;0.38;;
20365;SDS011;10341;49.894;8.822;2023-04-12T22:07:49;0.82;;;0.50;;
20365;SDS011;10341;49.894;8.822;2023-04-12T22:13:09;0.65;;;0.40;;
20365;SDS011;10341;49.894;8.822;2023-04-12T22:18:28;0.77;;;0.50;;
20365;SDS011;10341;49.894;8.822;2023-04-12T22:23:49;1.98;;;0.50;;
20365;SDS011;10341;49.894;8.822;2023-04-12T22:29:08;0.70;;;0.50;;
20365;SDS011;10341;49.894;8.822;2023-04-12T22:34:28;0.30;;;0.30;;
20365;SDS011;10341;49.894;8.822;2023-04-12T22:39:47;0.40;;;0.30;;
20365;SDS011;10341;49.894;8.822;2023-04-12T22:45:09;0.90;;;0.40;;
20365;SDS011;10341;49.894;8.822;2023-04-12T22:50:29;0.50;;;0.30;;
20365;SDS011;10341;49.894;8.822;2023-04-12T22:55:51;0.93;;;0.40;;
20365;SDS011;10341;49.894;8.822;2023-04-12T23:01:11;2.28;;;0.47;;
20365;SDS011;10341;49.894;8.822;2023-04-12T23:06:31;1.30;;;0.40;;
20365;SDS011;10341;49.894;8.822;2023-04-12T23:11:51;2.88;;;0.40;;
20365;SDS011;10341;49.894;8.822;2023-04-12T23:17:10;1.42;;;0.47;;
20365;SDS011;10341;49.894;8.822;2023-04-12T23:22:30;0.77;;;0.30;;
20365;SDS011;10341;49.894;8.822;2023-04-12T23:27:56;2.85;;;0.57;;
20365;SDS011;10341;49.894;8.822;2023-04-12T23:33:16;0.45;;;0.40;;
20365;SDS011;10341;49.894;8.822;2023-04-12T23:38:37;1.60;;;0.50;;
20365;SDS011;10341;49.894;8.822;2023-04-12T23:43:58;0.93;;;0.55;;
20365;SDS011;10341;49.894;8.822;2023-04-12T23:49:18;1.58;;;0.50;;
20365;SDS011;10341;49.894;8.822;2023-04-12T23:54:38;0.55;;;0.32;;
20365;SDS011;10341;49.894;8.822;2023-04-12T23:59:57;0.38;;;0.38;;
